Agness, Oregon
Current Conditions -  °F | °C
As of 2:56 PM on Wednesday 22 Oct 2014 (Local Time) from KBOK Reporting Station
Light Rain Light Rain  
Wind Chill: 16°   Ceiling: 2400
Heat Index: 16°   Visibility: 5mi
Dew Point: 13°   Wind: 17mph
Humidity: 87%   Direction: 170°S
Pressure: 29.9"   Gusts: 29mph
Location:  42.56°N, 124.07°W
Report Text: KBOK 222156Z AUTO 17015G25KT 5SM -RA BR OVC024 16/13 A2990 RMK AO2 T01550133 RAB2058E2059B38 P0000 SLP125
Loading
Personal Weather Stations






























Interactive Weather Map
Tropical Storm Tracking
New forecast layout! Learn more

10-Day Weather Forecast

Advertisements
Track Severe Weather on mobile